Главная страница
METAR-TAF:

METAR-TAF

Аэропорты :

Port Meadville Airport

Meadville, Пенсильвания, США

широта: 41-37-35N, долгота: 080-12-53W, высота над уровнем моря: 427 м

Текущие метеонаблюдения

Эта сводка был подготовлена 22 минут назад, в 06:53 UTC
Ветер 9 Узел от восточный
Температура -3°C
Влажность 68%
Давление 1029 hPa
Видимость: 16.1 км
ясное небо

METAR: KGKJ 150653Z AUTO 09009KT 10SM CLR M03/M08 A3038 RMK AO2 SLP304 T10331083

Время: 02:15 (07:15 UTC)


TAF: отсутствует

Метеонаблюдения и прогнозы для более 4000 аэропортов (сводки METAR и TAF).

Имеющиеся станции представлены на карте желтыми и красными точками.

Чтобы увидеть название станции, наведите на нее мышь.

Затем щелкните, чтобы увидеть метеонаблюдения и метеопрогнозы.

Управление картой: чтобы увеличить масштаб, щелкните зеленые кнопки с черным крестиком; чтобы уменьшить масштаб, щелкните зеленую кнопку с тире; для просмотра соседних карт щелкайте зеленые стрелки.


METAR-TAF: